createdAt,value
2023-02-18T04:17:55.361Z,15.87
2023-02-18T04:20:22.636Z,16.22
2023-02-18T04:22:49.916Z,16.72
2023-02-18T04:25:18.089Z,17.58
2023-02-18T04:27:45.351Z,17.54
2023-02-18T04:30:12.796Z,17.45
2023-02-18T04:35:23.131Z,18.86
2023-02-18T04:37:50.786Z,19.74
2023-02-18T04:42:53.427Z,22.30
2023-02-18T04:45:20.709Z,22.98
2023-02-18T04:47:48.012Z,23.23
2023-02-18T04:50:15.361Z,23.09
2023-02-18T04:52:42.629Z,23.80
2023-02-18T04:55:09.908Z,23.30
2023-02-18T04:57:37.259Z,23.83
2023-02-18T05:00:04.840Z,23.91
2023-02-18T05:02:32.103Z,24.94
2023-02-18T05:04:59.502Z,24.97
2023-02-18T05:07:26.774Z,26.02
2023-02-18T05:09:54.037Z,26.00
2023-02-18T05:12:21.378Z,26.52
2023-02-18T05:14:48.634Z,25.67
2023-02-18T05:17:15.886Z,25.98
2023-02-18T05:19:43.310Z,26.31
2023-02-18T05:22:12.645Z,25.58
2023-02-18T05:24:39.909Z,25.55
2023-02-18T05:27:07.313Z,25.99
2023-02-18T05:29:34.555Z,25.75
2023-02-18T05:32:01.864Z,26.25
2023-02-18T05:34:29.278Z,26.63
2023-02-18T05:36:56.546Z,26.98
2023-02-18T05:39:23.809Z,26.51
2023-02-18T05:41:51.202Z,26.23
2023-02-18T05:44:18.867Z,26.45
2023-02-18T05:46:46.231Z,26.15
2023-02-18T05:49:13.610Z,26.24
2023-02-18T05:51:40.920Z,25.58
2023-02-18T05:56:43.528Z,25.66
2023-02-18T06:04:24.766Z,26.14
2023-02-18T06:06:52.032Z,25.78
2023-02-18T06:09:19.348Z,25.93
2023-02-18T06:11:46.672Z,26.60
2023-02-18T06:14:13.954Z,26.88
2023-02-18T06:16:41.217Z,26.34
2023-02-18T06:19:09.568Z,26.69
2023-02-18T06:21:36.840Z,27.62
2023-02-18T06:24:04.104Z,27.59
2023-02-18T06:26:31.464Z,28.18
2023-02-18T06:28:58.722Z,27.81
2023-02-18T06:34:01.317Z,26.81
2023-02-18T06:36:28.652Z,27.06
2023-02-18T06:38:55.939Z,27.25
2023-02-18T06:41:23.364Z,28.33
2023-02-18T06:43:50.639Z,27.95
2023-02-18T06:46:17.920Z,29.03
2023-02-18T06:48:45.285Z,29.32
2023-02-18T06:51:12.549Z,30.72
2023-02-18T06:53:39.810Z,29.97
2023-02-18T06:56:07.309Z,30.61
2023-02-18T06:58:34.718Z,30.24
2023-02-18T07:01:02.026Z,29.42
2023-02-18T07:03:29.385Z,29.80
2023-02-18T07:05:56.679Z,29.75
2023-02-18T07:08:23.973Z,30.36
2023-02-18T07:10:51.312Z,30.28
2023-02-18T07:13:18.590Z,31.41
